Time;durP1;ratioP1;P1;durP2;ratioP2;P2;SDS_P1;SDS_P2;PMS_P1;PMS_P2;Temp;Humidity;BMP_temperature;BMP_pressure;BME280_temperature;BME280_humidity;BME280_pressure;Samples;Min_cycle;Max_cycle;Signal;HPM_P1;HPM_P2
2023/05/31 07:23:24;;;;;;;14.50;9.77;;;;;;;-145.79;60.25;78081.06;5279914;28;20897;-66
2023/05/31 07:25:57;;;;;;;13.35;10.75;;;;;;;-145.79;59.74;78076.81;5277822;28;20029;-66
2023/05/31 07:28:31;;;;;;;12.13;10.25;;;;;;;-145.79;59.28;78064.09;5277760;28;20035;-66
2023/05/31 07:31:02;;;;;;;14.25;10.70;;;;;;;-145.79;59.46;78064.09;5279637;28;20024;-67
2023/05/31 07:33:34;;;;;;;20.15;10.98;;;;;;;-145.79;59.02;78047.13;5279615;28;20025;-67
2023/05/31 07:36:11;;;;;;;18.20;11.20;;;;;;;-145.79;58.84;78053.50;5278938;28;20100;-66
2023/05/31 07:38:43;;;;;;;12.30;9.85;;;;;;;-145.79;58.68;78038.66;5279159;28;20480;-67
2023/05/31 07:41:15;;;;;;;13.60;10.07;;;;;;;-145.79;58.43;78021.69;5277668;28;20051;-64
2023/05/31 07:43:46;;;;;;;10.57;9.55;;;;;;;-145.79;58.32;78021.69;5265343;28;20443;-65
2023/05/31 07:46:18;;;;;;;16.67;12.02;;;;;;;-145.79;57.87;78021.69;5264795;28;20045;-66
2023/05/31 07:48:49;;;;;;;16.23;11.65;;;;;;;-145.79;57.58;78004.72;5257400;28;20021;-65
2023/05/31 07:51:21;;;;;;;11.27;9.90;;;;;;;-145.79;57.09;77996.25;5258651;28;20056;-66
2023/05/31 07:53:52;;;;;;;15.73;11.18;;;;;;;-145.79;57.19;77992.00;5258069;28;20021;-66
2023/05/31 07:56:24;;;;;;;13.70;10.50;;;;;;;-145.79;57.02;77985.66;5263438;28;20021;-66
2023/05/31 07:58:55;;;;;;;15.85;12.52;;;;;;;-145.79;56.91;77979.28;5279006;28;20092;-66
2023/05/31 08:01:26;;;;;;;12.65;10.50;;;;;;;-145.79;56.73;77975.06;5267370;28;20029;-66
2023/05/31 08:04:06;;;;;;;13.55;10.63;;;;;;;-145.79;56.52;77966.56;5258146;28;20021;-66
2023/05/31 08:06:38;;;;;;;14.40;10.32;;;;;;;-145.79;56.49;77960.22;5259568;28;20180;-66
2023/05/31 08:09:09;;;;;;;13.45;9.70;;;;;;;-145.79;56.74;77945.38;5258161;28;20105;-66
2023/05/31 08:11:41;;;;;;;14.20;11.60;;;;;;;-145.79;56.54;77941.13;5257475;28;20033;-65
2023/05/31 08:14:12;;;;;;;14.00;10.38;;;;;;;-145.79;55.93;77928.41;5257909;28;20029;-66
2023/05/31 08:16:44;;;;;;;14.27;11.50;;;;;;;-145.79;55.95;77915.69;5258494;28;20100;-66
2023/05/31 08:19:16;;;;;;;15.80;11.68;;;;;;;-145.79;55.93;77900.84;5262324;28;20475;-66
2023/05/31 08:21:48;;;;;;;13.73;11.23;;;;;;;-145.79;55.69;77886.00;5257599;28;20045;-67
2023/05/31 08:24:19;;;;;;;14.85;10.45;;;;;;;-145.79;55.13;77873.31;5257305;28;20052;-66
2023/05/31 08:26:51;;;;;;;13.02;9.63;;;;;;;-145.79;54.21;77860.56;5270237;28;20059;-66
2023/05/31 08:29:22;;;;;;;14.75;10.05;;;;;;;-145.79;54.41;77864.81;5278155;28;20029;-66
2023/05/31 08:31:55;;;;;;;16.38;10.32;;;;;;;-145.79;54.20;77860.56;5277800;28;20495;-67
2023/05/31 08:34:27;;;;;;;14.70;10.43;;;;;;;-145.79;53.94;77835.13;5265133;28;20112;-66
2023/05/31 08:36:59;;;;;;;13.70;10.10;;;;;;;-145.79;53.61;77835.13;5246439;28;20477;-66
2023/05/31 08:39:31;;;;;;;14.40;10.82;;;;;;;-145.79;53.52;77833.03;5256064;28;20468;-67
2023/05/31 08:42:05;;;;;;;11.75;10.02;;;;;;;-145.79;53.25;77826.66;5264309;28;20043;-66
2023/05/31 08:44:37;;;;;;;12.82;9.70;;;;;;;-145.79;53.01;77811.81;5264250;28;20360;-67
2023/05/31 08:47:35;;;;;;;11.60;9.68;;;;;;;-145.79;53.00;77796.97;5263661;28;20021;-66
2023/05/31 08:50:08;;;;;;;12.00;8.90;;;;;;;-145.79;52.87;77796.97;5245036;28;20042;-67
2023/05/31 08:52:40;;;;;;;16.95;10.68;;;;;;;-145.79;52.11;77784.25;5262387;28;20476;-67
2023/05/31 08:55:12;;;;;;;15.27;9.70;;;;;;;-145.79;52.45;77775.78;5263072;28;20029;-67
2023/05/31 08:57:45;;;;;;;15.40;9.82;;;;;;;-145.79;51.88;77767.31;5263775;28;20021;-67
2023/05/31 09:00:16;;;;;;;14.35;10.45;;;;;;;-145.79;51.39;77760.94;5258245;28;20043;-67
2023/05/31 09:02:51;;;;;;;15.27;10.32;;;;;;;-145.79;51.11;77739.75;5243265;28;20033;-67
2023/05/31 09:05:22;;;;;;;15.32;9.80;;;;;;;-145.79;50.83;77724.91;5242704;28;20484;-67
2023/05/31 09:07:55;;;;;;;12.52;8.57;;;;;;;-145.79;50.61;77712.19;5242529;28;20032;-67
2023/05/31 09:10:28;;;;;;;12.82;8.98;;;;;;;-145.79;50.28;77695.22;5242721;28;20077;-67
2023/05/31 09:13:00;;;;;;;11.75;8.90;;;;;;;-145.79;50.06;77686.75;5242647;28;20033;-68
2023/05/31 09:15:38;;;;;;;11.88;8.60;;;;;;;-145.79;49.33;77682.50;5242925;28;20025;-68
2023/05/31 09:18:18;;;;;;;15.30;11.48;;;;;;;-145.79;49.81;77671.91;5243045;28;20014;-68
2023/05/31 09:20:52;;;;;;;11.00;8.38;;;;;;;-145.79;49.37;77667.69;5242694;28;20025;-68
2023/05/31 09:23:23;;;;;;;10.32;8.15;;;;;;;-145.79;49.42;77663.44;5246949;28;20167;-67
2023/05/31 09:25:55;;;;;;;13.75;9.30;;;;;;;-145.79;48.34;77652.84;5256717;28;20021;-67
2023/05/31 09:28:26;;;;;;;10.85;8.27;;;;;;;-145.79;48.52;77642.25;5260623;28;20114;-67
2023/05/31 09:31:03;;;;;;;12.25;9.80;;;;;;;-145.79;47.94;77618.91;5263275;28;20017;-68
2023/05/31 09:33:43;;;;;;;10.02;7.90;;;;;;;-145.79;47.39;77610.44;5262777;28;20376;-68
2023/05/31 09:36:31;;;;;;;11.85;7.88;;;;;;;-145.79;47.38;77610.44;5248178;28;20087;-68
2023/05/31 09:39:04;;;;;;;16.85;8.23;;;;;;;-145.79;46.75;77580.75;5263513;28;20132;-69
2023/05/31 09:41:36;;;;;;;12.27;7.43;;;;;;;-145.79;47.72;77570.16;5261201;28;20061;-68
2023/05/31 09:44:08;;;;;;;12.48;6.88;;;;;;;-145.79;47.75;77559.56;5261982;28;20056;-69
2023/05/31 09:46:40;;;;;;;10.23;7.35;;;;;;;-145.79;46.59;77546.84;5257094;28;20030;-68
2023/05/31 09:49:11;;;;;;;14.77;8.00;;;;;;;-145.79;46.14;77538.38;5248571;28;20096;-69
2023/05/31 09:51:50;;;;;;;10.48;6.47;;;;;;;-145.79;46.10;77510.81;5262795;28;20033;-69
2023/05/31 09:54:26;;;;;;;9.07;7.20;;;;;;;-145.79;45.82;77525.66;5263216;28;20077;-69
2023/05/31 09:56:58;;;;;;;16.30;11.23;;;;;;;-145.79;46.02;77508.69;5246903;28;20037;-69
2023/05/31 09:59:32;;;;;;;14.95;8.07;;;;;;;-145.79;44.92;77504.47;5252430;28;20032;-68
2023/05/31 10:02:03;;;;;;;14.05;8.00;;;;;;;-145.79;45.25;77495.97;5252547;28;20045;-68
2023/05/31 10:04:36;;;;;;;10.23;6.50;;;;;;;-145.79;43.59;77489.63;5241293;28;20030;-69
2023/05/31 10:07:08;;;;;;;12.18;6.53;;;;;;;-145.79;43.76;77487.50;5256951;28;20483;-69
2023/05/31 10:09:42;;;;;;;9.02;5.95;;;;;;;-145.79;44.09;77462.06;5262233;28;20036;-68
2023/05/31 10:12:17;;;;;;;9.32;6.35;;;;;;;-145.79;43.74;77464.19;5262679;28;20388;-68
2023/05/31 10:15:01;;;;;;;10.93;6.05;;;;;;;-145.79;43.98;77440.88;5252501;28;20086;-68
2023/05/31 10:17:39;;;;;;;8.40;5.40;;;;;;;-145.79;43.06;77436.63;5247533;28;20021;-67
2023/05/31 10:20:15;;;;;;;10.98;6.53;;;;;;;-145.79;43.42;77436.63;5261479;28;20510;-68
2023/05/31 10:22:49;;;;;;;12.13;7.03;;;;;;;-145.79;42.92;77411.19;5262212;28;20052;-68
2023/05/31 10:25:31;;;;;;;7.75;5.50;;;;;;;-145.79;43.50;77400.59;5254726;28;20033;-68
2023/05/31 10:28:12;;;;;;;8.50;5.32;;;;;;;-145.79;42.51;77373.03;5248323;28;20071;-68
2023/05/31 10:30:48;;;;;;;9.23;4.95;;;;;;;-145.79;42.16;77364.56;5261147;28;20060;-68
2023/05/31 10:33:20;;;;;;;;;;;;;;;-145.79;42.08;77356.06;5251458;28;20033;-67
2023/05/31 10:35:51;;;;;;;13.60;7.38;;;;;;;-145.79;42.04;77326.41;5254307;28;19916;-68
2023/05/31 10:38:30;;;;;;;10.07;4.68;;;;;;;-145.79;41.79;77351.84;5260623;28;20025;-68
2023/05/31 10:41:16;;;;;;;8.00;4.80;;;;;;;-145.79;40.06;77324.28;5261694;28;20029;-68
2023/05/31 10:43:55;;;;;;;8.00;4.90;;;;;;;-145.79;40.07;77334.88;5260383;28;20032;-68
2023/05/31 10:46:30;;;;;;;7.13;4.57;;;;;;;-145.79;40.20;77313.69;5260576;28;20029;-65
2023/05/31 10:49:05;;;;;;;9.27;4.38;;;;;;;-145.79;39.80;77305.22;5261788;28;20460;-66
2023/05/31 10:51:49;;;;;;;8.70;4.28;;;;;;;-145.79;39.47;77298.84;5260238;28;20033;-67
2023/05/31 10:54:26;;;;;;;11.20;5.10;;;;;;;-145.79;39.32;77288.25;5261160;28;20025;-67
2023/05/31 10:56:58;;;;;;;9.55;4.13;;;;;;;-145.79;39.12;77258.56;5259035;28;20100;-67
2023/05/31 10:59:42;;;;;;;9.40;3.80;;;;;;;-145.79;39.31;77241.63;5257135;28;20021;-67
2023/05/31 11:02:14;;;;;;;9.48;5.28;;;;;;;-145.79;39.22;77243.75;5254519;28;20029;-67
2023/05/31 11:04:46;;;;;;;8.68;5.05;;;;;;;-145.79;38.26;77239.50;5261788;28;20055;-67
2023/05/31 11:07:24;;;;;;;7.13;4.50;;;;;;;-145.79;38.40;77231.03;5260253;28;20013;-67
2023/05/31 11:09:58;;;;;;;8.35;3.80;;;;;;;-145.79;38.80;77231.03;5259405;28;20396;-66
2023/05/31 11:12:32;;;;;;;8.77;4.63;;;;;;;-145.79;38.13;77231.03;5261661;28;20021;-67
2023/05/31 11:15:05;;;;;;;7.95;4.90;;;;;;;-145.79;37.90;77224.66;5261259;28;20032;-66
2023/05/31 11:17:50;;;;;;;10.02;4.18;;;;;;;-145.79;38.22;77207.72;5261656;28;20476;-66
2023/05/31 11:20:25;;;;;;;8.90;4.33;;;;;;;-145.79;37.78;77207.72;5258952;28;20021;-66
2023/05/31 11:23:30;;;;;;;8.05;4.82;;;;;;;-145.79;38.02;77199.22;5261107;28;20064;-67
2023/05/31 11:26:17;;;;;;;7.25;3.42;;;;;;;-145.79;37.58;77182.28;5248803;28;20041;-67
2023/05/31 11:28:57;;;;;;;5.00;3.30;;;;;;;-145.79;37.46;77186.50;5260752;28;20452;-68
2023/05/31 11:31:49;;;;;;;7.32;4.32;;;;;;;-145.79;37.61;77165.31;5246417;28;20029;-67
2023/05/31 11:34:29;;;;;;;8.85;3.53;;;;;;;-145.79;37.72;77156.84;5245665;28;20038;-67
2023/05/31 11:37:03;;;;;;;6.03;3.50;;;;;;;-145.79;37.82;77169.56;5261321;28;20025;-67
2023/05/31 11:39:34;;;;;;;7.05;3.22;;;;;;;-145.79;36.87;77156.84;5260658;28;20021;-67
2023/05/31 11:42:07;;;;;;;6.93;4.05;;;;;;;-145.79;37.24;77152.59;5240268;28;20056;-67
2023/05/31 11:44:42;;;;;;;6.18;4.03;;;;;;;-145.79;37.25;77154.72;5240852;28;20030;-67
2023/05/31 11:47:21;;;;;;;8.50;3.47;;;;;;;-145.79;37.08;77114.44;5241907;28;20037;-67
2023/05/31 11:49:52;;;;;;;6.30;3.30;;;;;;;-145.79;36.81;77105.97;5249173;28;20063;-67
2023/05/31 11:52:24;;;;;;;6.75;3.53;;;;;;;-145.79;36.29;77097.50;5261551;28;20052;-67
2023/05/31 11:55:04;;;;;;;7.57;4.25;;;;;;;-145.79;36.70;77076.31;5258258;28;20108;-68
2023/05/31 11:57:41;;;;;;;5.28;3.53;;;;;;;-145.79;36.45;77084.78;5258531;28;20090;-67
2023/05/31 12:00:15;;;;;;;5.68;3.53;;;;;;;-145.79;36.19;77076.31;5241038;28;20040;-71
2023/05/31 12:02:56;;;;;;;9.60;4.93;;;;;;;-145.79;36.79;77061.47;5237964;28;20102;-69
2023/05/31 12:05:27;;;;;;;9.48;4.60;;;;;;;-145.79;36.65;77080.53;5245153;28;20051;-68
2023/05/31 12:07:59;;;;;;;12.20;5.13;;;;;;;-145.79;36.45;77074.19;5258458;28;20025;-68
2023/05/31 12:10:32;;;;;;;5.50;3.13;;;;;;;-145.79;36.53;77065.69;5251566;28;20019;-68
2023/05/31 12:13:03;;;;;;;10.48;4.80;;;;;;;-145.79;36.62;77033.91;5265104;28;20033;-67
2023/05/31 12:15:34;;;;;;;7.85;5.07;;;;;;;-145.79;36.65;77042.38;5264115;28;20380;-67
2023/05/31 12:18:06;;;;;;;16.67;12.50;;;;;;;-145.79;36.85;77014.84;5263297;28;20031;-68
2023/05/31 12:20:37;;;;;;;6.35;3.78;;;;;;;-145.79;36.65;77008.47;5259440;28;20064;-68
2023/05/31 12:23:13;;;;;;;8.80;4.28;;;;;;;-145.79;36.77;77006.34;5243185;28;20076;-68
2023/05/31 12:25:49;;;;;;;9.20;3.97;;;;;;;-145.79;36.90;76993.63;5244021;28;20477;-68
2023/05/31 12:28:21;;;;;;;6.65;3.78;;;;;;;-145.79;36.53;76991.53;5244009;28;20025;-67
2023/05/31 12:30:52;;;;;;;12.98;5.00;;;;;;;-145.79;36.51;76995.75;5249357;28;20386;-68
2023/05/31 12:33:24;;;;;;;11.15;4.93;;;;;;;-145.79;36.67;76966.09;5259352;28;20040;-68
2023/05/31 12:35:56;;;;;;;6.70;3.45;;;;;;;-145.79;36.15;76949.13;5251628;28;20100;-69
2023/05/31 12:38:28;;;;;;;5.82;4.20;;;;;;;-145.79;36.08;76953.38;5245332;28;20041;-68
2023/05/31 12:41:01;;;;;;;10.20;4.45;;;;;;;-145.79;36.04;76961.84;5263829;28;20025;-68
2023/05/31 12:43:32;;;;;;;7.45;3.88;;;;;;;-145.79;35.79;76940.66;5264613;28;20024;-68
2023/05/31 12:46:03;;;;;;;7.28;3.45;;;;;;;-145.79;35.84;76923.69;5263574;28;20017;-68
2023/05/31 12:48:35;;;;;;;7.35;4.18;;;;;;;-145.79;35.76;76910.97;5259757;28;20443;-68
2023/05/31 12:51:07;;;;;;;9.18;3.85;;;;;;;-145.79;35.37;76902.50;5243054;28;20081;-68
2023/05/31 12:53:39;;;;;;;6.88;3.60;;;;;;;-145.79;35.34;76894.03;5248799;28;20413;-68
2023/05/31 12:56:11;;;;;;;7.25;3.55;;;;;;;-145.79;34.89;76887.66;5264358;28;20517;-68
2023/05/31 12:58:42;;;;;;;3.90;2.88;;;;;;;-145.79;35.03;76870.72;5250685;28;20018;-69
2023/05/31 13:01:14;;;;;;;6.65;3.65;;;;;;;-145.79;34.56;76847.41;5243082;28;20492;-68
2023/05/31 13:03:45;;;;;;;8.90;3.72;;;;;;;-145.79;34.64;76864.34;5248561;28;20028;-68
2023/05/31 13:06:16;;;;;;;12.77;6.35;;;;;;;-145.79;35.12;76849.53;5261476;28;20108;-69
2023/05/31 13:08:48;;;;;;;9.45;3.70;;;;;;;-145.79;34.53;76855.88;5254074;28;20024;-69
2023/05/31 13:11:19;;;;;;;7.00;4.20;;;;;;;-145.79;34.42;76849.53;5243088;28;20154;-69
2023/05/31 13:13:50;;;;;;;9.50;3.72;;;;;;;-145.79;34.61;76828.31;5247974;28;20032;-69
2023/05/31 13:16:22;;;;;;;5.65;3.40;;;;;;;-145.79;34.30;76817.72;5249128;28;20022;-68
2023/05/31 13:18:53;;;;;;;8.73;5.22;;;;;;;-145.79;34.89;76838.94;5244684;28;20029;-69
2023/05/31 13:21:25;;;;;;;6.78;3.75;;;;;;;-145.79;34.02;76813.50;5262804;28;20048;-69
2023/05/31 13:23:58;;;;;;;5.82;3.03;;;;;;;-145.79;34.45;76824.09;5249376;28;20029;-68
2023/05/31 13:26:29;;;;;;;5.10;3.15;;;;;;;-145.79;34.22;76788.06;5242410;28;20028;-69
2023/05/31 13:29:02;;;;;;;8.48;5.43;;;;;;;-145.79;33.93;76783.81;5243563;28;20029;-68
2023/05/31 13:31:34;;;;;;;8.38;3.58;;;;;;;-145.79;33.65;76775.34;5257314;28;20029;-67
2023/05/31 13:34:05;;;;;;;5.15;3.67;;;;;;;-145.79;33.78;76754.16;5242226;28;20020;-67
2023/05/31 13:36:37;;;;;;;6.65;3.17;;;;;;;-145.79;34.05;76756.28;5242648;28;20021;-70
2023/05/31 13:39:13;;;;;;;7.60;3.40;;;;;;;-145.79;34.12;76783.81;5242757;28;20476;-67
2023/05/31 13:41:46;;;;;;;5.80;3.15;;;;;;;-145.79;34.16;76779.59;5258461;28;20021;-66
2023/05/31 13:44:17;;;;;;;6.60;3.20;;;;;;;-145.79;34.42;76805.00;5242566;28;20043;-66
2023/05/31 13:46:48;;;;;;;9.40;3.30;;;;;;;-145.79;34.62;76800.78;5242369;28;20438;-67
2023/05/31 13:49:20;;;;;;;12.07;4.15;;;;;;;-145.79;34.59;76771.09;5241449;28;20017;-67
2023/05/31 13:51:51;;;;;;;12.75;8.23;;;;;;;-145.79;34.73;76764.75;5254357;28;20025;-66
2023/05/31 13:54:22;;;;;;;10.23;7.60;;;;;;;-145.79;34.68;76796.53;5262341;28;20035;-66
2023/05/31 13:56:58;;;;;;;8.45;4.53;;;;;;;-145.79;34.60;76794.41;5262131;28;20466;-66
2023/05/31 13:59:29;;;;;;;6.95;3.70;;;;;;;-145.79;34.66;76773.22;5244685;28;20075;-65
2023/05/31 14:02:01;;;;;;;7.47;3.75;;;;;;;-145.79;35.15;76773.22;5241704;28;20025;-67
2023/05/31 14:04:32;;;;;;;7.20;3.70;;;;;;;-145.79;34.41;76760.50;5254556;28;20029;-67
2023/05/31 14:07:04;;;;;;;9.10;4.38;;;;;;;-145.79;34.39;76747.78;5262625;28;20104;-68
2023/05/31 14:09:35;;;;;;;6.05;3.53;;;;;;;-145.79;34.33;76747.78;5260238;28;20082;-68
2023/05/31 14:12:07;;;;;;;8.15;3.58;;;;;;;-145.79;34.27;76730.84;5262070;28;20053;-68
2023/05/31 14:14:39;;;;;;;6.25;3.20;;;;;;;-145.79;34.01;76703.28;5242265;28;20025;-68
2023/05/31 14:17:11;;;;;;;10.13;4.57;;;;;;;-145.79;33.85;76694.81;5250509;28;20102;-66
2023/05/31 14:19:42;;;;;;;6.80;3.38;;;;;;;-145.79;33.94;76690.56;5243708;28;20053;-65
2023/05/31 14:22:13;;;;;;;8.85;3.55;;;;;;;-145.79;33.69;76684.22;5262242;28;20049;-67
2023/05/31 14:24:45;;;;;;;9.65;3.45;;;;;;;-145.79;33.66;76665.16;5261929;28;20024;-67
2023/05/31 14:27:18;;;;;;;8.65;3.47;;;;;;;-145.79;33.66;76673.63;5262880;28;20033;-66
2023/05/31 14:29:49;;;;;;;9.07;3.67;;;;;;;-145.79;33.66;76652.44;5260010;28;20441;-66
2023/05/31 14:32:21;;;;;;;8.00;5.45;;;;;;;-145.79;33.74;76616.41;5245765;28;20112;-67
2023/05/31 14:34:52;;;;;;;8.15;3.25;;;;;;;-145.79;33.05;76652.44;5244741;28;20071;-67
2023/05/31 14:37:24;;;;;;;5.80;3.35;;;;;;;-145.79;33.18;76648.19;5250269;28;20021;-67
2023/05/31 14:39:55;;;;;;;8.70;3.70;;;;;;;-145.79;33.09;76673.63;5262486;28;20033;-67
2023/05/31 14:42:26;;;;;;;4.93;3.00;;;;;;;-145.79;33.16;76639.72;5262038;28;20476;-67
2023/05/31 14:45:03;;;;;;;8.57;3.72;;;;;;;-145.79;33.14;76641.84;5261274;28;20021;-67
2023/05/31 14:47:36;;;;;;;8.90;3.97;;;;;;;-145.79;33.35;76654.53;5259101;28;20036;-67
2023/05/31 14:50:07;;;;;;;8.70;3.75;;;;;;;-145.79;33.38;76643.94;5241878;28;20025;-66
2023/05/31 14:52:39;;;;;;;7.18;5.25;;;;;;;-145.79;33.41;76656.66;5260195;28;20480;-67
2023/05/31 14:55:13;;;;;;;5.97;3.20;;;;;;;-145.79;33.53;76669.38;5261939;28;20028;-66
2023/05/31 14:57:44;;;;;;;8.05;3.97;;;;;;;-145.79;33.53;76677.84;5260578;28;20017;-67
2023/05/31 15:00:16;;;;;;;16.15;8.60;;;;;;;-145.79;33.57;76684.22;5259870;28;20186;-68
2023/05/31 15:02:47;;;;;;;10.07;5.55;;;;;;;-145.79;33.67;76652.44;5261434;28;20104;-68
2023/05/31 15:05:18;;;;;;;10.73;9.25;;;;;;;-145.79;33.63;76663.03;5250932;28;20029;-69
2023/05/31 15:07:49;;;;;;;8.02;4.60;;;;;;;-145.79;33.64;76669.38;5249536;28;20021;-67
2023/05/31 15:10:21;;;;;;;5.50;3.22;;;;;;;-145.79;33.33;76694.81;5250309;28;20025;-67
2023/05/31 15:12:53;;;;;;;8.25;3.30;;;;;;;-145.79;33.04;76669.38;5248934;28;20030;-68
2023/05/31 15:15:24;;;;;;;8.77;3.47;;;;;;;-145.79;33.33;76673.63;5240711;28;20036;-67
2023/05/31 15:17:55;;;;;;;11.27;3.80;;;;;;;-145.79;33.48;76701.16;5252030;28;20426;-66
2023/05/31 15:20:26;;;;;;;6.75;3.20;;;;;;;-145.79;34.02;76707.53;5260950;28;20104;-65
2023/05/31 15:22:58;;;;;;;7.18;3.33;;;;;;;-145.79;33.92;76692.69;5260676;28;20061;-67
2023/05/31 15:25:29;;;;;;;6.25;3.28;;;;;;;-145.79;34.24;76669.38;5260729;28;20025;-66
2023/05/31 15:28:01;;;;;;;10.20;3.17;;;;;;;-145.79;33.77;76694.81;5256173;28;20025;-66
2023/05/31 15:30:32;;;;;;;8.32;4.00;;;;;;;-145.79;33.76;76703.28;5261657;28;20021;-67
2023/05/31 15:33:03;;;;;;;6.00;3.63;;;;;;;-145.79;33.94;76726.59;5248533;28;20025;-66
2023/05/31 15:35:35;;;;;;;5.90;3.55;;;;;;;-145.79;33.84;76720.25;5258209;28;20135;-66
2023/05/31 15:38:06;;;;;;;9.38;3.42;;;;;;;-145.79;33.42;76711.75;5261265;28;20467;-66
2023/05/31 15:40:37;;;;;;;6.55;3.72;;;;;;;-145.79;33.99;76716.00;5242950;28;20025;-67
2023/05/31 15:43:09;;;;;;;9.77;3.83;;;;;;;-145.79;33.88;76724.47;5252611;28;20033;-67
2023/05/31 15:45:40;;;;;;;9.40;3.72;;;;;;;-145.79;33.85;76716.00;5251493;28;20028;-67
2023/05/31 15:48:11;;;;;;;6.13;3.58;;;;;;;-145.79;33.82;76716.00;5259763;28;20107;-67
2023/05/31 15:50:43;;;;;;;7.22;4.88;;;;;;;-145.79;34.01;76707.53;5258288;28;20112;-67
2023/05/31 15:53:15;;;;;;;4.53;3.05;;;;;;;-145.79;33.87;76724.47;5254624;28;20480;-67
2023/05/31 15:55:47;;;;;;;7.93;3.97;;;;;;;-145.79;33.89;76709.66;5262738;28;20025;-66
2023/05/31 15:58:18;;;;;;;5.63;2.90;;;;;;;-145.79;33.84;76699.06;5247553;28;20067;-65
2023/05/31 16:00:49;;;;;;;9.60;3.25;;;;;;;-145.79;33.91;76707.53;5244255;28;20108;-67
2023/05/31 16:03:21;;;;;;;11.50;3.13;;;;;;;-145.79;34.18;76686.34;5243838;28;20025;-70
2023/05/31 16:05:55;;;;;;;7.03;3.53;;;;;;;-145.79;33.71;76696.94;5244481;28;20021;-69
2023/05/31 16:08:26;;;;;;;7.35;3.45;;;;;;;-145.79;33.34;76682.09;5253389;28;20140;-69
2023/05/31 16:10:57;;;;;;;6.63;3.17;;;;;;;-145.79;33.67;76682.09;5247537;28;20116;-71
2023/05/31 16:13:28;;;;;;;6.70;3.40;;;;;;;-145.79;33.60;76658.78;5254272;28;20040;-70
2023/05/31 16:16:00;;;;;;;7.35;3.78;;;;;;;-145.79;33.79;76665.16;5263328;28;20134;-72
2023/05/31 16:18:31;;;;;;;5.85;3.65;;;;;;;-145.79;33.82;76620.63;5265627;28;20028;-72
2023/05/31 16:21:03;;;;;;;10.75;3.88;;;;;;;-145.79;33.62;76612.16;5264893;28;20033;-72
2023/05/31 16:23:34;;;;;;;6.68;3.10;;;;;;;-145.79;33.45;76597.31;5264431;28;20025;-69
2023/05/31 16:26:06;;;;;;;7.63;3.97;;;;;;;-145.79;33.18;76622.75;5265162;28;20439;-72
2023/05/31 16:28:37;;;;;;;8.20;3.25;;;;;;;-145.79;33.13;76627.00;5265206;28;20041;-72
2023/05/31 16:31:08;;;;;;;7.57;3.72;;;;;;;-145.79;33.46;76605.81;5248211;28;20064;-72
2023/05/31 16:33:39;;;;;;;8.60;3.40;;;;;;;-145.79;33.39;76610.03;5253039;28;20064;-72
2023/05/31 16:36:11;;;;;;;7.13;3.67;;;;;;;-145.79;32.91;76610.03;5263972;28;20107;-72
2023/05/31 16:38:42;;;;;;;7.10;3.15;;;;;;;-145.79;33.15;76624.88;5265114;28;20419;-72
2023/05/31 16:41:13;;;;;;;5.80;2.70;;;;;;;-145.79;32.84;76597.31;5264591;28;20082;-70
2023/05/31 16:43:45;;;;;;;7.03;3.67;;;;;;;-145.79;32.81;76622.75;5264337;28;20045;-72
2023/05/31 16:46:16;;;;;;;7.93;3.25;;;;;;;-145.79;33.59;76639.72;5263807;28;20067;-69
2023/05/31 16:48:48;;;;;;;7.43;3.78;;;;;;;-145.79;33.01;76635.47;5243900;28;20109;-71
2023/05/31 16:51:20;;;;;;;6.68;3.35;;;;;;;-145.79;33.06;76631.22;5243347;28;20481;-70
2023/05/31 16:53:52;;;;;;;6.05;3.13;;;;;;;-145.79;33.13;76601.56;5262710;28;20128;-70
